Time;durP1;ratioP1;P1;durP2;ratioP2;P2;SDS_P1;SDS_P2;PMS_P1;PMS_P2;Temp;Humidity;BMP_temperature;BMP_pressure;BME280_temperature;BME280_humidity;BME280_pressure;Samples;Min_cycle;Max_cycle;Signal;HPM_P1;HPM_P2
2021/12/26 00:02:08;;;;;;;;;;;-1.10;90.50;;;;;;4976685;28;19976;-80
2021/12/26 00:04:34;;;;;;;;;;;-1.10;90.50;;;;;;4993020;28;20417;-79
2021/12/26 00:07:00;;;;;;;;;;;-1.20;90.40;;;;;;4993838;28;19906;-80
2021/12/26 00:09:25;;;;;;;;;;;-1.20;90.80;;;;;;4993734;28;19948;-80
2021/12/26 00:11:51;;;;;;;;;;;-1.20;90.60;;;;;;4993714;28;20353;-85
2021/12/26 00:14:17;;;;;;;;;;;-1.20;90.90;;;;;;4994755;28;19956;-79
2021/12/26 00:16:42;;;;;;;;;;;-1.20;91.20;;;;;;4997992;28;20008;-78
2021/12/26 00:19:08;;;;;;;;;;;-1.20;91.60;;;;;;4980874;28;19910;-78
2021/12/26 00:21:33;;;;;;;;;;;-1.30;91.10;;;;;;4997561;28;20239;-78
2021/12/26 00:23:59;;;;;;;;;;;-1.30;91.40;;;;;;4996815;28;19910;-77
2021/12/26 00:26:25;;;;;;;;;;;-1.30;92.20;;;;;;4979635;28;20378;-77
2021/12/26 00:28:51;;;;;;;;;;;-1.20;92.20;;;;;;4996373;28;19916;-77
2021/12/26 00:31:17;;;;;;;;;;;-1.20;92.50;;;;;;4996060;28;20357;-78
2021/12/26 00:33:43;;;;;;;;;;;-1.20;92.60;;;;;;4996325;28;20040;-79
2021/12/26 00:36:08;;;;;;;;;;;-1.10;92.50;;;;;;4996060;28;20274;-78
2021/12/26 00:38:34;;;;;;;;;;;-1.10;92.60;;;;;;4979632;28;19910;-79
2021/12/26 00:41:00;;;;;;;;;;;-1.00;92.50;;;;;;4979682;28;20441;-77
2021/12/26 00:43:26;;;;;;;;;;;-0.90;91.90;;;;;;4996131;28;19914;-77
2021/12/26 00:45:52;;;;;;;;;;;-0.90;91.80;;;;;;4980032;28;19913;-78
2021/12/26 00:48:17;;;;;;;;;;;-0.90;92.50;;;;;;4995778;28;20084;-78
2021/12/26 00:50:43;;;;;;;;;;;-0.70;92.10;;;;;;4979580;28;19916;-78
2021/12/26 00:53:09;;;;;;;;;;;-0.70;92.40;;;;;;4995681;28;20339;-79
2021/12/26 00:55:34;;;;;;;;;;;-0.60;92.40;;;;;;4996533;28;19912;-78
2021/12/26 00:58:00;;;;;;;;;;;-0.50;92.80;;;;;;4978941;28;19917;-78
2021/12/26 01:00:28;;;;;;;;;;;-0.50;92.90;;;;;;4996256;28;19906;-78
2021/12/26 01:02:54;;;;;;;;;;;-0.40;92.60;;;;;;4996370;28;19913;-77
2021/12/26 01:05:21;;;;;;;;;;;-0.40;91.50;;;;;;4996768;28;19909;-78
2021/12/26 01:08:08;;;;;;;;;;;-0.40;91.70;;;;;;4996710;28;19910;-79
2021/12/26 01:10:39;;;;;;;;;;;-0.40;91.60;;;;;;4996779;28;20262;-78
2021/12/26 01:13:15;;;;;;;;;;;-0.40;91.80;;;;;;4996393;28;19906;-77
2021/12/26 01:15:41;;;;;;;;;;;-0.30;91.90;;;;;;4995217;28;19943;-77
2021/12/26 01:18:07;;;;;;;;;;;-0.20;92.40;;;;;;4994961;28;19914;-77
2021/12/26 01:20:42;;;;;;;;;;;-0.20;91.30;;;;;;4995048;28;19912;-78
2021/12/26 01:23:08;;;;;;;;;;;-0.30;91.40;;;;;;4995215;28;20343;-77
2021/12/26 01:25:34;;;;;;;;;;;-0.30;91.70;;;;;;4995495;28;19906;-77
2021/12/26 01:27:59;;;;;;;;;;;-0.30;91.80;;;;;;4994834;28;20345;-82
2021/12/26 01:30:25;;;;;;;;;;;-0.30;91.90;;;;;;4994536;28;19917;-77
2021/12/26 01:32:50;;;;;;;;;;;-0.30;92.60;;;;;;4979476;28;19960;-78
2021/12/26 01:35:16;;;;;;;;;;;-0.20;93.00;;;;;;4994542;28;20376;-78
2021/12/26 01:37:42;;;;;;;;;;;-0.20;92.60;;;;;;4996440;28;19955;-79
2021/12/26 01:40:07;;;;;;;;;;;-0.20;91.80;;;;;;4994181;28;19953;-77
2021/12/26 01:42:34;;;;;;;;;;;-0.10;92.50;;;;;;4994908;28;20421;-78
2021/12/26 01:44:59;;;;;;;;;;;-0.10;93.20;;;;;;4994660;28;20413;-78
2021/12/26 01:47:25;;;;;;;;;;;0.00;92.50;;;;;;4996284;28;19965;-78
2021/12/26 01:49:51;;;;;;;;;;;0.00;92.90;;;;;;4994198;28;19910;-78
2021/12/26 01:52:16;;;;;;;;;;;0.00;91.40;;;;;;4978214;28;19913;-78
2021/12/26 01:54:59;;;;;;;;;;;-0.10;92.00;;;;;;4994835;28;20365;-78
2021/12/26 01:57:24;;;;;;;;;;;0.00;92.80;;;;;;4996066;28;19918;-81
2021/12/26 01:59:50;;;;;;;;;;;0.00;92.00;;;;;;4997212;28;20319;-80
2021/12/26 02:02:15;;;;;;;;;;;0.00;92.60;;;;;;4995022;28;19933;-78
2021/12/26 02:04:43;;;;;;;;;;;0.10;92.40;;;;;;4996200;28;19910;-78
2021/12/26 02:07:09;;;;;;;;;;;0.00;91.90;;;;;;4995504;28;20346;-78
2021/12/26 02:09:36;;;;;;;;;;;0.00;92.50;;;;;;4994507;28;19977;-78
2021/12/26 02:12:02;;;;;;;;;;;0.00;92.00;;;;;;4995313;28;19924;-78
2021/12/26 02:14:27;;;;;;;;;;;0.00;92.00;;;;;;4978549;28;20050;-78
2021/12/26 02:16:53;;;;;;;;;;;0.00;92.50;;;;;;4994215;28;19925;-77
2021/12/26 02:19:19;;;;;;;;;;;0.00;92.20;;;;;;4994022;28;20285;-77
2021/12/26 02:22:03;;;;;;;;;;;0.00;92.20;;;;;;4995319;28;19964;-77
2021/12/26 02:24:43;;;;;;;;;;;0.00;91.60;;;;;;4994012;28;19960;-79
2021/12/26 02:29:53;;;;;;;;;;;0.00;93.10;;;;;;4995153;28;19950;-78
2021/12/26 02:32:19;;;;;;;;;;;0.00;93.00;;;;;;4979278;28;19910;-79
2021/12/26 02:34:44;;;;;;;;;;;0.00;92.60;;;;;;4978410;28;19913;-78
2021/12/26 02:37:10;;;;;;;;;;;-0.10;92.50;;;;;;4994119;28;20060;-83
2021/12/26 02:39:36;;;;;;;;;;;-0.10;93.00;;;;;;4994416;28;19932;-78
2021/12/26 02:42:02;;;;;;;;;;;0.00;93.10;;;;;;4994174;28;20350;-78
2021/12/26 02:44:27;;;;;;;;;;;0.00;92.30;;;;;;4993425;28;19996;-77
2021/12/26 02:46:53;;;;;;;;;;;0.00;92.70;;;;;;4994950;28;20358;-77
2021/12/26 02:49:23;;;;;;;;;;;0.00;92.80;;;;;;4978533;28;20274;-77
2021/12/26 02:51:49;;;;;;;;;;;0.00;93.20;;;;;;4995209;28;19913;-79
2021/12/26 02:54:15;;;;;;;;;;;0.10;93.50;;;;;;4993923;28;20365;-78
2021/12/26 02:56:40;;;;;;;;;;;0.10;93.10;;;;;;4995294;28;19913;-78
2021/12/26 02:59:06;;;;;;;;;;;0.10;93.60;;;;;;4980280;28;19916;-79
2021/12/26 03:01:31;;;;;;;;;;;0.20;93.70;;;;;;4979716;28;19912;-79
2021/12/26 03:03:57;;;;;;;;;;;0.20;93.30;;;;;;4978430;28;19960;-78
2021/12/26 03:06:29;;;;;;;;;;;0.20;93.30;;;;;;4980617;28;19978;-78
2021/12/26 03:08:55;;;;;;;;;;;0.20;92.50;;;;;;4993586;28;19959;-79
2021/12/26 03:11:21;;;;;;;;;;;0.10;93.00;;;;;;4992824;28;19910;-78
2021/12/26 03:13:47;;;;;;;;;;;0.10;93.70;;;;;;4993957;28;19917;-78
2021/12/26 03:16:12;;;;;;;;;;;0.20;93.70;;;;;;4992823;28;20036;-82
2021/12/26 03:18:38;;;;;;;;;;;0.30;94.00;;;;;;4992997;28;20401;-78
2021/12/26 03:21:04;;;;;;;;;;;0.20;93.20;;;;;;4978714;28;20008;-79
2021/12/26 03:23:29;;;;;;;;;;;0.20;93.40;;;;;;4993448;28;19909;-79
2021/12/26 03:25:56;;;;;;;;;;;0.20;93.40;;;;;;4993179;28;19914;-82
2021/12/26 03:28:21;;;;;;;;;;;0.10;93.70;;;;;;4993242;28;19910;-78
2021/12/26 03:30:47;;;;;;;;;;;0.10;93.30;;;;;;4993330;28;20404;-79
2021/12/26 03:33:13;;;;;;;;;;;0.00;93.50;;;;;;4992999;28;19917;-79
2021/12/26 03:35:38;;;;;;;;;;;0.00;93.90;;;;;;4993982;28;19949;-79
2021/12/26 03:38:06;;;;;;;;;;;0.10;94.50;;;;;;4992801;28;20405;-79
2021/12/26 03:40:32;;;;;;;;;;;0.10;94.70;;;;;;4992730;28;19918;-79
2021/12/26 03:42:57;;;;;;;;;;;0.10;94.10;;;;;;4992168;28;19906;-79
2021/12/26 03:45:23;;;;;;;;;;;0.00;94.40;;;;;;4994500;28;19913;-80
2021/12/26 03:47:50;;;;;;;;;;;0.00;94.20;;;;;;4992870;28;19906;-80
2021/12/26 03:50:19;;;;;;;;;;;-0.10;94.10;;;;;;4980840;28;19921;-79
2021/12/26 03:52:50;;;;;;;;;;;-0.20;94.50;;;;;;4996876;28;19920;-80
2021/12/26 03:55:19;;;;;;;;;;;-0.20;94.50;;;;;;4998714;28;19910;-79
2021/12/26 03:57:44;;;;;;;;;;;-0.30;94.30;;;;;;4996734;28;19920;-79
2021/12/26 04:00:10;;;;;;;;;;;-0.30;94.50;;;;;;4996541;28;20346;-79
2021/12/26 04:02:36;;;;;;;;;;;-0.40;94.50;;;;;;4997677;28;19928;-80
2021/12/26 04:05:02;;;;;;;;;;;-0.40;95.10;;;;;;4996521;28;20008;-79
2021/12/26 04:07:27;;;;;;;;;;;-0.40;95.00;;;;;;4996190;28;19905;-80
2021/12/26 04:09:53;;;;;;;;;;;-0.50;95.10;;;;;;4997191;28;20358;-79
2021/12/26 04:12:18;;;;;;;;;;;-0.50;95.10;;;;;;4979983;28;19910;-79
2021/12/26 04:14:44;;;;;;;;;;;-0.40;95.50;;;;;;4995899;28;19960;-79
2021/12/26 04:17:09;;;;;;;;;;;-0.50;95.40;;;;;;4996236;28;19921;-79
2021/12/26 04:19:35;;;;;;;;;;;-0.50;95.50;;;;;;4995852;28;19914;-79
2021/12/26 04:22:02;;;;;;;;;;;-0.50;95.70;;;;;;4996097;28;19906;-79
2021/12/26 04:24:29;;;;;;;;;;;-0.50;96.00;;;;;;4980059;28;19910;-78
2021/12/26 04:26:55;;;;;;;;;;;-0.40;95.80;;;;;;4997829;28;19921;-78
2021/12/26 04:29:20;;;;;;;;;;;-0.50;96.50;;;;;;4979848;28;19909;-78
2021/12/26 04:31:46;;;;;;;;;;;-0.40;96.50;;;;;;4996038;28;19910;-78
2021/12/26 04:34:11;;;;;;;;;;;-0.40;95.70;;;;;;4979919;28;19910;-78
2021/12/26 04:36:37;;;;;;;;;;;-0.40;96.20;;;;;;4979554;28;19917;-78
2021/12/26 04:39:03;;;;;;;;;;;-0.40;95.80;;;;;;4995950;28;19910;-78
2021/12/26 04:41:28;;;;;;;;;;;-0.50;96.10;;;;;;4979434;28;19910;-78
2021/12/26 04:43:54;;;;;;;;;;;-0.40;96.10;;;;;;4995695;28;19906;-78
2021/12/26 04:46:20;;;;;;;;;;;-0.50;96.30;;;;;;4997425;28;19912;-78
2021/12/26 04:48:45;;;;;;;;;;;-0.50;96.10;;;;;;4995534;28;19909;-78
2021/12/26 04:51:11;;;;;;;;;;;-0.50;96.30;;;;;;4995429;28;20269;-78
2021/12/26 04:53:37;;;;;;;;;;;-0.50;96.30;;;;;;4979932;28;19961;-79
2021/12/26 04:56:03;;;;;;;;;;;-0.40;97.00;;;;;;4997624;28;19910;-78
2021/12/26 04:58:29;;;;;;;;;;;-0.40;96.30;;;;;;4997060;28;20000;-78
2021/12/26 05:00:55;;;;;;;;;;;-0.50;96.40;;;;;;4996133;28;20370;-78
2021/12/26 05:03:20;;;;;;;;;;;-0.50;96.50;;;;;;4980051;28;19916;-78
2021/12/26 05:05:46;;;;;;;;;;;-0.50;96.80;;;;;;4998191;28;19915;-78
2021/12/26 05:08:12;;;;;;;;;;;-0.50;96.50;;;;;;4981236;28;19917;-79
2021/12/26 05:10:37;;;;;;;;;;;-0.60;96.30;;;;;;4997121;28;19912;-79
2021/12/26 05:13:04;;;;;;;;;;;-0.60;96.20;;;;;;5000907;28;19937;-78
2021/12/26 05:15:29;;;;;;;;;;;-0.70;96.50;;;;;;5003856;28;19929;-85
2021/12/26 05:17:55;;;;;;;;;;;-0.60;96.70;;;;;;4980529;28;19921;-78
2021/12/26 05:20:22;;;;;;;;;;;-0.60;96.70;;;;;;4996904;28;19921;-79
2021/12/26 05:22:48;;;;;;;;;;;-0.70;96.30;;;;;;4996969;28;19917;-78
2021/12/26 05:25:14;;;;;;;;;;;-0.60;97.10;;;;;;4997665;28;19913;-79
2021/12/26 05:27:40;;;;;;;;;;;-0.60;97.00;;;;;;4996355;28;19961;-79
2021/12/26 05:30:07;;;;;;;;;;;-0.50;96.90;;;;;;4996092;28;20318;-79
2021/12/26 05:32:33;;;;;;;;;;;-0.50;96.80;;;;;;4997552;28;19984;-78
2021/12/26 05:34:59;;;;;;;;;;;-0.50;96.80;;;;;;4997960;28;19941;-78
2021/12/26 05:37:24;;;;;;;;;;;-0.50;97.00;;;;;;4996176;28;19914;-79
2021/12/26 05:39:50;;;;;;;;;;;-0.40;97.20;;;;;;4978357;28;20303;-77
2021/12/26 05:42:16;;;;;;;;;;;-0.30;97.10;;;;;;4994859;28;20250;-78
2021/12/26 05:44:45;;;;;;;;;;;-0.30;97.00;;;;;;4994439;28;19952;-78
2021/12/26 05:47:11;;;;;;;;;;;-0.30;97.10;;;;;;4996363;28;19905;-78
2021/12/26 05:49:37;;;;;;;;;;;-0.30;96.90;;;;;;4994886;28;19913;-79
2021/12/26 05:52:02;;;;;;;;;;;-0.30;97.10;;;;;;4994837;28;19935;-79
2021/12/26 05:54:28;;;;;;;;;;;-0.30;96.80;;;;;;4995704;28;19906;-79
2021/12/26 05:56:53;;;;;;;;;;;-0.40;96.70;;;;;;4995244;28;19921;-80
2021/12/26 05:59:19;;;;;;;;;;;-0.50;96.20;;;;;;4994394;28;19912;-80
2021/12/26 06:01:44;;;;;;;;;;;-0.60;96.50;;;;;;4978944;28;19977;-80
2021/12/26 06:04:10;;;;;;;;;;;-0.60;96.80;;;;;;4994310;28;19906;-81
2021/12/26 06:06:36;;;;;;;;;;;-0.70;96.90;;;;;;4994333;28;20047;-83
2021/12/26 06:09:03;;;;;;;;;;;-0.70;97.30;;;;;;4994186;28;19906;-80
2021/12/26 06:11:29;;;;;;;;;;;-0.70;97.30;;;;;;4993494;28;19929;-80
2021/12/26 06:13:54;;;;;;;;;;;-0.60;97.70;;;;;;4977936;28;19906;-80
2021/12/26 06:16:20;;;;;;;;;;;-0.60;97.60;;;;;;4993904;28;20008;-81
2021/12/26 06:18:45;;;;;;;;;;;-0.60;97.50;;;;;;4977712;28;19920;-80
2021/12/26 06:21:11;;;;;;;;;;;-0.60;97.30;;;;;;4996104;28;20000;-81
2021/12/26 06:23:36;;;;;;;;;;;-0.60;97.00;;;;;;4995844;28;19910;-85
2021/12/26 06:26:02;;;;;;;;;;;-0.60;97.40;;;;;;4994003;28;20413;-81
2021/12/26 06:28:27;;;;;;;;;;;-0.50;97.80;;;;;;4994795;28;20000;-81
2021/12/26 06:30:53;;;;;;;;;;;-0.60;97.60;;;;;;4978053;28;20321;-80
2021/12/26 06:33:18;;;;;;;;;;;-0.50;97.70;;;;;;4994068;28;20004;-81
2021/12/26 06:35:44;;;;;;;;;;;-0.40;97.70;;;;;;4994739;28;19916;-82
2021/12/26 06:38:09;;;;;;;;;;;-0.40;97.30;;;;;;4996626;28;20036;-82
2021/12/26 06:40:35;;;;;;;;;;;-0.30;97.40;;;;;;4996684;28;19925;-86
2021/12/26 06:43:00;;;;;;;;;;;-0.40;97.30;;;;;;4994212;28;19948;-84
2021/12/26 06:45:26;;;;;;;;;;;-0.30;97.30;;;;;;4977898;28;20302;-83
2021/12/26 06:47:54;;;;;;;;;;;-0.30;97.20;;;;;;4994348;28;19932;-81
2021/12/26 06:50:20;;;;;;;;;;;-0.30;97.30;;;;;;4978211;28;19916;-81
2021/12/26 06:52:46;;;;;;;;;;;-0.20;97.00;;;;;;4977277;28;19914;-81
2021/12/26 06:55:12;;;;;;;;;;;-0.20;96.90;;;;;;4993389;28;19914;-81
2021/12/26 06:57:38;;;;;;;;;;;-0.20;96.50;;;;;;4993390;28;19917;-86
2021/12/26 07:00:05;;;;;;;;;;;-0.30;96.80;;;;;;4994648;28;19906;-82
2021/12/26 07:02:30;;;;;;;;;;;-0.20;97.00;;;;;;4993646;28;19906;-82
2021/12/26 07:04:56;;;;;;;;;;;-0.20;97.30;;;;;;4977263;28;19917;-81
2021/12/26 07:07:21;;;;;;;;;;;0.00;97.30;;;;;;4993545;28;20369;-81
2021/12/26 07:09:47;;;;;;;;;;;0.00;97.50;;;;;;4993641;28;20354;-82
2021/12/26 07:12:13;;;;;;;;;;;0.00;96.00;;;;;;4993552;28;19979;-81
2021/12/26 07:14:40;;;;;;;;;;;-0.20;96.00;;;;;;4977483;28;19909;-85
2021/12/26 07:17:05;;;;;;;;;;;-0.30;95.80;;;;;;4977860;28;20033;-82
2021/12/26 07:19:31;;;;;;;;;;;-0.30;96.30;;;;;;4993576;28;19991;-82
2021/12/26 07:21:56;;;;;;;;;;;-0.40;96.50;;;;;;4978280;28;19917;-82
2021/12/26 07:24:22;;;;;;;;;;;-0.30;96.70;;;;;;4997906;28;19909;-82
2021/12/26 07:26:47;;;;;;;;;;;-0.30;96.80;;;;;;4997846;28;20000;-82
2021/12/26 07:29:13;;;;;;;;;;;-0.30;97.00;;;;;;4998000;28;19916;-82
2021/12/26 07:31:38;;;;;;;;;;;-0.20;97.30;;;;;;4997151;28;20369;-82
2021/12/26 07:34:04;;;;;;;;;;;0.00;97.30;;;;;;4997602;28;20369;-82
2021/12/26 07:36:29;;;;;;;;;;;0.10;96.80;;;;;;4997145;28;19918;-83
2021/12/26 07:38:55;;;;;;;;;;;0.00;96.10;;;;;;4998320;28;20008;-82
2021/12/26 07:41:20;;;;;;;;;;;0.00;96.50;;;;;;4996839;28;19960;-82
2021/12/26 07:43:46;;;;;;;;;;;0.00;96.90;;;;;;4997222;28;20346;-84
2021/12/26 07:46:11;;;;;;;;;;;-0.10;96.60;;;;;;4998398;28;20247;-82
2021/12/26 07:48:37;;;;;;;;;;;0.00;96.80;;;;;;4996749;28;20358;-82
2021/12/26 07:51:05;;;;;;;;;;;0.10;97.30;;;;;;4996581;28;20358;-83
2021/12/26 07:53:30;;;;;;;;;;;0.10;96.90;;;;;;4981577;28;19916;-82
2021/12/26 07:55:56;;;;;;;;;;;0.10;96.80;;;;;;4997691;28;20317;-82
2021/12/26 07:58:22;;;;;;;;;;;0.10;96.50;;;;;;4997334;28;20462;-82
2021/12/26 08:00:47;;;;;;;;;;;0.00;96.40;;;;;;4996168;28;19921;-86
2021/12/26 08:03:13;;;;;;;;;;;-0.10;96.60;;;;;;4997152;28;19906;-82
2021/12/26 08:05:38;;;;;;;;;;;0.00;97.20;;;;;;4980126;28;19914;-83
2021/12/26 08:08:04;;;;;;;;;;;0.10;97.00;;;;;;4996270;28;19906;-83
2021/12/26 08:10:30;;;;;;;;;;;0.00;96.80;;;;;;4996800;28;19916;-82
2021/12/26 08:12:55;;;;;;;;;;;0.10;97.20;;;;;;4995683;28;19917;-82
2021/12/26 08:15:21;;;;;;;;;;;0.20;97.30;;;;;;4979507;28;19964;-82
2021/12/26 08:17:46;;;;;;;;;;;0.30;97.30;;;;;;4996901;28;19918;-82
2021/12/26 08:20:12;;;;;;;;;;;0.50;97.50;;;;;;4996413;28;20274;-81
2021/12/26 08:22:38;;;;;;;;;;;0.60;96.90;;;;;;4996170;28;20026;-81
2021/12/26 08:25:04;;;;;;;;;;;0.50;96.70;;;;;;4997005;28;20321;-82
2021/12/26 08:27:32;;;;;;;;;;;0.40;96.20;;;;;;4995329;28;19906;-82
2021/12/26 08:29:58;;;;;;;;;;;0.30;96.50;;;;;;4995442;28;19996;-82
2021/12/26 08:32:23;;;;;;;;;;;0.20;96.80;;;;;;4995672;28;20052;-82
2021/12/26 08:34:49;;;;;;;;;;;0.50;97.70;;;;;;4979270;28;19957;-83
2021/12/26 08:37:15;;;;;;;;;;;0.50;97.10;;;;;;4995762;28;19928;-82
2021/12/26 08:39:42;;;;;;;;;;;0.60;97.00;;;;;;4978760;28;19922;-82
2021/12/26 08:42:09;;;;;;;;;;;0.50;96.80;;;;;;4995479;28;19924;-82
2021/12/26 08:44:35;;;;;;;;;;;0.50;97.00;;;;;;4995278;28;19968;-81
2021/12/26 08:47:01;;;;;;;;;;;0.40;97.00;;;;;;4995245;28;20317;-81
2021/12/26 08:49:27;;;;;;;;;;;0.40;97.70;;;;;;4979610;28;19910;-82
2021/12/26 08:51:54;;;;;;;;;;;0.60;97.90;;;;;;4995687;28;19905;-85
2021/12/26 08:54:22;;;;;;;;;;;0.70;98.10;;;;;;4979269;28;19913;-82
2021/12/26 08:56:48;;;;;;;;;;;0.80;97.80;;;;;;4995574;28;19941;-82
2021/12/26 08:59:13;;;;;;;;;;;0.90;97.70;;;;;;4995146;28;20331;-82
2021/12/26 09:01:39;;;;;;;;;;;0.90;97.80;;;;;;4978897;28;19910;-82
2021/12/26 09:04:04;;;;;;;;;;;1.00;98.10;;;;;;4994581;28;19960;-83
2021/12/26 09:06:30;;;;;;;;;;;1.10;97.80;;;;;;4978656;28;19968;-83
2021/12/26 09:08:55;;;;;;;;;;;1.20;97.90;;;;;;4978482;28;19918;-83
2021/12/26 09:11:21;;;;;;;;;;;1.30;97.70;;;;;;4995755;28;19949;-83
2021/12/26 09:13:47;;;;;;;;;;;1.40;97.80;;;;;;4994934;28;19910;-83
2021/12/26 09:16:13;;;;;;;;;;;1.40;97.70;;;;;;4995324;28;19961;-82
2021/12/26 09:18:39;;;;;;;;;;;1.50;97.90;;;;;;4995034;28;19910;-82
2021/12/26 09:21:04;;;;;;;;;;;1.50;97.90;;;;;;4978951;28;19916;-83
2021/12/26 09:23:31;;;;;;;;;;;1.60;98.10;;;;;;4996602;28;19905;-83
2021/12/26 09:25:57;;;;;;;;;;;1.60;98.10;;;;;;4994857;28;20342;-85
2021/12/26 09:28:23;;;;;;;;;;;1.60;98.00;;;;;;4994743;28;19916;-82
2021/12/26 09:30:48;;;;;;;;;;;1.70;98.10;;;;;;4978360;28;19919;-81
2021/12/26 09:33:19;;;;;;;;;;;1.80;98.30;;;;;;4994529;28;19913;-81
2021/12/26 09:35:46;;;;;;;;;;;1.90;98.30;;;;;;4994845;28;19910;-81
2021/12/26 09:38:12;;;;;;;;;;;2.00;97.80;;;;;;4978482;28;19924;-80
2021/12/26 09:40:38;;;;;;;;;;;2.00;97.20;;;;;;4995173;28;19917;-81
2021/12/26 09:43:03;;;;;;;;;;;1.80;97.10;;;;;;4994170;28;19906;-82
2021/12/26 09:45:29;;;;;;;;;;;1.70;97.60;;;;;;4995397;28;19906;-82
2021/12/26 09:47:54;;;;;;;;;;;1.70;97.90;;;;;;4993041;28;19909;-80
2021/12/26 09:50:21;;;;;;;;;;;1.70;98.00;;;;;;4978144;28;19910;-80
2021/12/26 09:52:47;;;;;;;;;;;1.70;98.10;;;;;;4994721;28;20052;-81
2021/12/26 09:55:13;;;;;;;;;;;1.70;98.00;;;;;;4994185;28;19906;-80
2021/12/26 09:57:41;;;;;;;;;;;1.70;97.90;;;;;;4993621;28;19918;-80
2021/12/26 10:00:22;;;;;;;;;;;1.60;98.10;;;;;;4993965;28;20354;-79
2021/12/26 10:03:06;;;;;;;;;;;1.70;98.60;;;;;;4995545;28;20016;-80
2021/12/26 10:05:32;;;;;;;;;;;1.90;98.50;;;;;;4993818;28;20350;-79
2021/12/26 10:08:07;;;;;;;;;;;2.00;98.50;;;;;;4993198;28;19960;-79
2021/12/26 10:10:32;;;;;;;;;;;2.10;98.00;;;;;;4977341;28;20004;-80
2021/12/26 10:12:58;;;;;;;;;;;2.00;98.00;;;;;;4977005;28;19957;-82
2021/12/26 10:15:43;;;;;;;;;;;2.00;98.20;;;;;;4976744;28;19922;-80
2021/12/26 10:18:28;;;;;;;;;;;2.00;98.40;;;;;;4992607;28;19964;-81
2021/12/26 10:20:54;;;;;;;;;;;2.10;98.10;;;;;;4977828;28;19976;-79
2021/12/26 10:23:24;;;;;;;;;;;2.10;98.40;;;;;;4994211;28;19906;-79
2021/12/26 10:25:49;;;;;;;;;;;2.20;98.50;;;;;;4993254;28;19906;-80
2021/12/26 10:28:15;;;;;;;;;;;2.30;98.20;;;;;;4994051;28;19917;-81
2021/12/26 10:30:44;;;;;;;;;;;2.30;98.10;;;;;;4993155;28;19906;-80
2021/12/26 10:33:09;;;;;;;;;;;2.30;98.30;;;;;;4992517;28;20334;-81
2021/12/26 10:35:35;;;;;;;;;;;2.40;98.30;;;;;;4993264;28;19917;-81
2021/12/26 10:38:00;;;;;;;;;;;2.40;98.30;;;;;;4993569;28;19918;-81
2021/12/26 10:40:31;;;;;;;;;;;2.40;98.30;;;;;;4977790;28;20282;-81
2021/12/26 10:42:58;;;;;;;;;;;2.40;98.40;;;;;;4978114;28;19921;-83
2021/12/26 10:45:24;;;;;;;;;;;2.50;98.50;;;;;;4978443;28;19914;-83
2021/12/26 10:47:51;;;;;;;;;;;2.60;98.70;;;;;;4992658;28;20265;-83
2021/12/26 10:50:19;;;;;;;;;;;2.70;98.80;;;;;;4992712;28;20016;-85
2021/12/26 10:52:49;;;;;;;;;;;2.70;98.60;;;;;;4995794;28;19944;-83
2021/12/26 10:55:17;;;;;;;;;;;2.80;98.80;;;;;;4995920;28;19921;-84
2021/12/26 10:57:44;;;;;;;;;;;2.90;98.50;;;;;;4997181;28;19972;-86
2021/12/26 11:00:12;;;;;;;;;;;3.00;98.40;;;;;;4998315;28;19919;-87
2021/12/26 11:02:40;;;;;;;;;;;3.10;98.00;;;;;;4998011;28;20504;-85
2021/12/26 11:05:07;;;;;;;;;;;3.10;98.50;;;;;;4998508;28;19941;-85
2021/12/26 11:07:40;;;;;;;;;;;3.10;98.10;;;;;;4998427;28;19906;-87
2021/12/26 11:10:07;;;;;;;;;;;3.10;98.30;;;;;;4999842;28;19956;-87
2021/12/26 11:12:37;;;;;;;;;;;3.20;98.30;;;;;;4999157;28;20384;-88
2021/12/26 11:15:03;;;;;;;;;;;3.20;98.30;;;;;;4998244;28;19905;-87
2021/12/26 11:17:36;;;;;;;;;;;3.40;99.30;;;;;;4997897;28;19997;-85
2021/12/26 11:20:03;;;;;;;;;;;3.60;98.80;;;;;;4996883;28;19909;-84
2021/12/26 11:22:28;;;;;;;;;;;3.60;98.20;;;;;;4997324;28;19929;-85
2021/12/26 11:24:54;;;;;;;;;;;3.60;97.80;;;;;;4997853;28;19910;-84
2021/12/26 11:27:24;;;;;;;;;;;3.60;98.10;;;;;;4980216;28;19910;-85
2021/12/26 11:29:50;;;;;;;;;;;3.60;98.20;;;;;;4995891;28;19906;-83
2021/12/26 11:32:26;;;;;;;;;;;3.50;98.30;;;;;;4981189;28;19913;-84
2021/12/26 11:34:52;;;;;;;;;;;3.50;98.40;;;;;;4998494;28;20413;-83
2021/12/26 11:37:18;;;;;;;;;;;3.60;98.70;;;;;;4999437;28;19967;-84
2021/12/26 11:39:44;;;;;;;;;;;3.60;98.70;;;;;;4997303;28;19910;-84
2021/12/26 11:42:18;;;;;;;;;;;3.70;98.80;;;;;;4998432;28;19952;-85
2021/12/26 11:45:16;;;;;;;;;;;3.80;98.50;;;;;;4995847;28;19910;-83
2021/12/26 11:48:10;;;;;;;;;;;3.80;98.70;;;;;;4984634;28;19913;-81
2021/12/26 11:50:42;;;;;;;;;;;3.80;98.40;;;;;;4996759;28;19910;-82
2021/12/26 11:53:26;;;;;;;;;;;3.90;98.50;;;;;;4995292;28;19914;-82
2021/12/26 11:56:11;;;;;;;;;;;4.00;98.60;;;;;;4994181;28;19906;-83
2021/12/26 11:58:39;;;;;;;;;;;4.00;98.20;;;;;;4996001;28;19914;-80
2021/12/26 12:01:06;;;;;;;;;;;4.00;98.30;;;;;;4994664;28;19906;-82
2021/12/26 12:03:31;;;;;;;;;;;4.10;98.60;;;;;;4995741;28;19909;-81
2021/12/26 12:05:58;;;;;;;;;;;4.20;98.50;;;;;;4995545;28;19932;-83
2021/12/26 12:08:23;;;;;;;;;;;4.20;98.30;;;;;;4994170;28;19906;-81
2021/12/26 12:10:55;;;;;;;;;;;4.20;98.40;;;;;;4998179;28;20044;-81
2021/12/26 12:13:26;;;;;;;;;;;4.20;98.00;;;;;;4997097;28;19910;-83
2021/12/26 12:15:53;;;;;;;;;;;4.30;98.40;;;;;;4997396;28;19905;-84
2021/12/26 12:18:21;;;;;;;;;;;4.30;98.40;;;;;;4998582;28;19950;-83
2021/12/26 12:21:04;;;;;;;;;;;4.40;98.30;;;;;;4997770;28;19906;-81
2021/12/26 12:23:30;;;;;;;;;;;4.50;98.20;;;;;;4998305;28;20388;-81
2021/12/26 12:25:55;;;;;;;;;;;4.40;98.10;;;;;;4998990;28;19913;-80
2021/12/26 12:28:26;;;;;;;;;;;4.40;98.30;;;;;;4980801;28;20001;-81
2021/12/26 12:30:56;;;;;;;;;;;4.40;98.30;;;;;;4995800;28;20283;-80
2021/12/26 12:33:22;;;;;;;;;;;4.40;98.40;;;;;;4996826;28;19953;-81
2021/12/26 12:35:48;;;;;;;;;;;4.50;98.50;;;;;;4995501;28;19909;-81
2021/12/26 12:38:33;;;;;;;;;;;4.40;98.20;;;;;;4996943;28;19971;-79
2021/12/26 12:40:59;;;;;;;;;;;4.40;98.40;;;;;;4995264;28;19921;-80
2021/12/26 12:43:25;;;;;;;;;;;4.40;98.70;;;;;;4995567;28;19944;-80
2021/12/26 12:46:12;;;;;;;;;;;4.30;98.70;;;;;;4979127;28;19914;-81
2021/12/26 12:48:44;;;;;;;;;;;4.30;99.00;;;;;;4995800;28;19989;-80
2021/12/26 12:51:15;;;;;;;;;;;4.30;99.00;;;;;;4996776;28;19909;-80
2021/12/26 12:53:44;;;;;;;;;;;4.20;99.00;;;;;;4996496;28;19902;-80
2021/12/26 12:56:29;;;;;;;;;;;4.30;99.50;;;;;;4995164;28;19913;-81
2021/12/26 12:59:16;;;;;;;;;;;4.40;99.40;;;;;;4997271;28;19914;-82
2021/12/26 13:01:43;;;;;;;;;;;4.50;99.40;;;;;;4990987;28;19913;-84
2021/12/26 13:04:09;;;;;;;;;;;4.60;99.30;;;;;;4996702;28;19941;-83
2021/12/26 13:06:35;;;;;;;;;;;4.50;99.20;;;;;;4995296;28;19913;-81
2021/12/26 13:09:00;;;;;;;;;;;4.50;99.00;;;;;;4994837;28;19910;-84
2021/12/26 13:11:29;;;;;;;;;;;4.40;99.20;;;;;;4996053;28;19912;-83
2021/12/26 13:13:57;;;;;;;;;;;4.40;99.40;;;;;;4994720;28;19993;-82
2021/12/26 13:16:29;;;;;;;;;;;4.40;99.40;;;;;;4978922;28;19914;-85
2021/12/26 13:18:55;;;;;;;;;;;4.30;99.40;;;;;;4994710;28;20359;-82
2021/12/26 13:21:20;;;;;;;;;;;4.30;99.70;;;;;;4996391;28;19912;-83
2021/12/26 13:23:46;;;;;;;;;;;4.30;99.60;;;;;;4995766;28;19929;-82
2021/12/26 13:26:12;;;;;;;;;;;4.20;99.70;;;;;;4995550;28;20008;-82
2021/12/26 13:28:38;;;;;;;;;;;4.20;99.90;;;;;;4996038;28;20009;-82
2021/12/26 13:31:03;;;;;;;;;;;4.20;99.90;;;;;;4994735;28;19905;-82
2021/12/26 13:33:31;;;;;;;;;;;4.20;99.90;;;;;;4994504;28;19912;-84
2021/12/26 13:35:57;;;;;;;;;;;4.20;99.90;;;;;;4994542;28;20336;-82
2021/12/26 13:38:23;;;;;;;;;;;4.20;99.90;;;;;;4994394;28;20004;-82
2021/12/26 13:40:53;;;;;;;;;;;4.30;99.90;;;;;;4994408;28;19905;-83
2021/12/26 13:43:32;;;;;;;;;;;4.40;99.90;;;;;;4995784;28;19905;-83
2021/12/26 13:45:58;;;;;;;;;;;4.40;99.90;;;;;;4995038;28;19906;-83
2021/12/26 13:48:29;;;;;;;;;;;4.30;99.80;;;;;;4994189;28;19917;-83
2021/12/26 13:50:54;;;;;;;;;;;4.30;99.90;;;;;;4994736;28;20267;-84
2021/12/26 13:53:20;;;;;;;;;;;4.20;99.90;;;;;;4977823;28;19916;-83
2021/12/26 13:55:52;;;;;;;;;;;4.30;99.90;;;;;;4994026;28;19920;-84
2021/12/26 13:58:18;;;;;;;;;;;4.40;99.90;;;;;;4995475;28;19920;-83
2021/12/26 14:00:48;;;;;;;;;;;4.40;99.90;;;;;;4994058;28;19905;-84
2021/12/26 14:03:14;;;;;;;;;;;4.40;99.90;;;;;;4993922;28;19997;-83
2021/12/26 14:05:39;;;;;;;;;;;4.50;99.90;;;;;;4994909;28;19941;-83
2021/12/26 14:08:19;;;;;;;;;;;4.40;99.90;;;;;;4995139;28;19914;-83
2021/12/26 14:10:45;;;;;;;;;;;4.30;99.90;;;;;;4993950;28;19905;-84
2021/12/26 14:13:11;;;;;;;;;;;4.20;99.90;;;;;;4995579;28;19956;-81
2021/12/26 14:15:45;;;;;;;;;;;4.20;99.90;;;;;;4994910;28;19928;-83
2021/12/26 14:18:18;;;;;;;;;;;4.20;99.90;;;;;;4993759;28;19914;-81
2021/12/26 14:20:45;;;;;;;;;;;4.10;99.90;;;;;;4995407;28;19960;-80
2021/12/26 14:23:15;;;;;;;;;;;4.20;99.90;;;;;;4993026;28;19906;-80
2021/12/26 14:25:41;;;;;;;;;;;4.30;99.90;;;;;;4994027;28;19906;-81
2021/12/26 14:28:07;;;;;;;;;;;4.40;99.90;;;;;;4993567;28;19910;-81
2021/12/26 14:30:36;;;;;;;;;;;4.30;99.90;;;;;;4994446;28;20285;-82